createdAt,value
2018-07-17T00:03:59.978Z,3.30
2018-07-17T00:09:04.446Z,3.25
2018-07-17T00:14:08.231Z,3.40
2018-07-17T00:19:12.028Z,3.07
2018-07-17T00:24:16.161Z,3.30
2018-07-17T00:29:19.961Z,3.35
2018-07-17T00:34:23.749Z,3.50
2018-07-17T00:39:27.795Z,3.27
2018-07-17T00:44:31.676Z,3.30
2018-07-17T00:49:35.465Z,3.03
2018-07-17T00:54:39.802Z,3.07
2018-07-17T00:59:43.584Z,3.57
2018-07-17T01:04:52.919Z,3.13
2018-07-17T01:10:02.216Z,3.10
2018-07-17T01:15:11.527Z,3.10
2018-07-17T01:20:15.308Z,2.87
2018-07-17T01:25:19.314Z,3.23
2018-07-17T01:30:23.317Z,3.23
2018-07-17T01:35:27.330Z,3.13
2018-07-17T01:40:31.338Z,3.43
2018-07-17T01:45:35.118Z,3.67
2018-07-17T01:50:38.896Z,3.80
2018-07-17T01:55:42.934Z,3.43
2018-07-17T02:00:47.011Z,3.37
2018-07-17T02:05:50.790Z,3.87
2018-07-17T02:10:54.565Z,3.53
2018-07-17T02:15:58.545Z,3.70
2018-07-17T02:21:02.317Z,3.43
2018-07-17T02:26:06.102Z,3.40
2018-07-17T02:31:09.877Z,3.53
2018-07-17T02:36:13.645Z,3.60
2018-07-17T02:41:17.662Z,3.60
2018-07-17T02:46:21.668Z,3.90
2018-07-17T02:51:25.437Z,3.60
2018-07-17T02:56:29.306Z,3.57
2018-07-17T03:01:33.090Z,4.27
2018-07-17T03:06:37.123Z,4.12
2018-07-17T03:11:41.155Z,3.80
2018-07-17T03:16:45.023Z,3.83
2018-07-17T03:21:48.830Z,3.73
2018-07-17T03:26:52.633Z,3.83
2018-07-17T03:31:56.425Z,3.43
2018-07-17T03:37:00.471Z,3.70
2018-07-17T03:42:04.261Z,3.40
2018-07-17T03:47:08.065Z,3.27
2018-07-17T03:52:11.855Z,3.67
2018-07-17T03:57:15.672Z,3.70
2018-07-17T04:02:19.743Z,4.00
2018-07-17T04:07:23.538Z,3.40
2018-07-17T04:12:27.570Z,3.87
2018-07-17T04:17:31.633Z,3.80
2018-07-17T04:22:35.437Z,4.03
2018-07-17T04:27:39.234Z,4.10
2018-07-17T04:32:43.021Z,3.90
2018-07-17T04:37:46.828Z,4.13
2018-07-17T04:42:50.609Z,4.50
2018-07-17T04:47:54.653Z,4.13
2018-07-17T04:52:58.691Z,4.60
2018-07-17T04:58:02.528Z,4.10
2018-07-17T05:03:06.340Z,4.03
2018-07-17T05:08:10.157Z,4.08
2018-07-17T05:13:13.955Z,4.40
2018-07-17T05:18:18.010Z,4.57
2018-07-17T05:23:21.812Z,4.73
2018-07-17T05:28:25.616Z,4.10
2018-07-17T05:33:29.651Z,4.30
2018-07-17T05:38:33.454Z,4.63
2018-07-17T05:43:37.265Z,4.17
2018-07-17T05:48:41.048Z,4.40
2018-07-17T05:53:45.269Z,4.30
2018-07-17T05:58:49.350Z,4.57
2018-07-17T06:03:53.137Z,4.23
2018-07-17T06:08:56.917Z,4.40
2018-07-17T06:14:00.718Z,4.53
2018-07-17T06:19:05.027Z,4.10
2018-07-17T06:24:09.038Z,4.37
2018-07-17T06:29:12.848Z,4.20
2018-07-17T06:34:16.888Z,4.23
2018-07-17T06:39:20.912Z,4.60
2018-07-17T06:44:24.976Z,4.13
2018-07-17T06:49:28.768Z,4.63
2018-07-17T06:54:32.560Z,4.58
2018-07-17T06:59:36.631Z,4.63
2018-07-17T07:04:40.661Z,4.70
2018-07-17T07:09:44.696Z,4.30
2018-07-17T07:14:48.735Z,5.20
2018-07-17T07:19:52.538Z,5.27
2018-07-17T07:24:56.588Z,5.73
2018-07-17T07:30:00.381Z,5.10
2018-07-17T07:35:04.204Z,5.60
2018-07-17T07:40:08.029Z,5.97
2018-07-17T07:45:11.854Z,5.15
2018-07-17T07:50:15.943Z,6.33
2018-07-17T07:55:19.994Z,5.75
2018-07-17T08:00:23.814Z,5.90
2018-07-17T08:05:27.604Z,5.42
2018-07-17T08:10:31.388Z,5.70
2018-07-17T08:15:35.191Z,6.20
2018-07-17T08:20:38.996Z,6.17
2018-07-17T08:25:42.798Z,6.05
2018-07-17T08:30:46.609Z,6.28
2018-07-17T08:35:50.451Z,7.75
2018-07-17T08:40:54.237Z,7.87
2018-07-17T08:45:58.027Z,8.48
2018-07-17T08:51:01.839Z,8.83
2018-07-17T08:56:05.652Z,8.45
2018-07-17T09:01:10.069Z,6.90
2018-07-17T09:06:13.892Z,6.15
2018-07-17T09:11:17.942Z,6.15
2018-07-17T09:16:21.745Z,6.15
2018-07-17T09:21:25.856Z,6.03
2018-07-17T09:26:29.656Z,5.58
2018-07-17T09:31:33.445Z,5.67
2018-07-17T09:36:37.245Z,5.58
2018-07-17T09:41:41.090Z,5.10
2018-07-17T09:46:44.892Z,5.50
2018-07-17T09:51:48.718Z,6.17
2018-07-17T09:56:52.794Z,5.05
2018-07-17T10:02:02.110Z,6.20
2018-07-17T10:07:06.273Z,5.50
2018-07-17T10:12:10.068Z,4.55
2018-07-17T10:17:13.885Z,4.58
2018-07-17T10:22:17.930Z,5.12
2018-07-17T10:27:21.994Z,4.55
2018-07-17T10:32:25.807Z,5.70
2018-07-17T10:37:29.857Z,4.90
2018-07-17T10:42:33.661Z,6.00
2018-07-17T10:47:37.538Z,5.50
2018-07-17T10:52:41.485Z,5.03
2018-07-17T10:57:45.338Z,4.22
2018-07-17T11:02:49.148Z,4.40
2018-07-17T11:07:52.941Z,4.00
2018-07-17T11:12:56.773Z,3.58
2018-07-17T11:18:00.572Z,4.20
2018-07-17T11:23:04.380Z,3.90
2018-07-17T11:28:08.193Z,3.58
2018-07-17T11:33:12.253Z,3.80
2018-07-17T11:38:16.326Z,3.45
2018-07-17T11:43:20.352Z,4.08
2018-07-17T11:48:24.394Z,3.60
2018-07-17T11:53:28.217Z,3.65
2018-07-17T11:58:32.217Z,2.75
2018-07-17T12:03:36.251Z,2.75
2018-07-17T12:08:40.064Z,2.83
2018-07-17T12:13:44.137Z,2.77
2018-07-17T12:18:49.512Z,2.87
2018-07-17T12:23:53.325Z,2.55
2018-07-17T12:28:57.128Z,2.83
2018-07-17T12:34:01.162Z,2.70
2018-07-17T12:39:07.432Z,2.90
2018-07-17T12:44:11.284Z,2.92
2018-07-17T12:49:15.256Z,3.10
2018-07-17T12:54:19.101Z,2.85
2018-07-17T12:59:22.925Z,3.05
2018-07-17T13:04:26.966Z,2.90
2018-07-17T13:09:30.805Z,2.90
2018-07-17T13:14:34.657Z,3.37
2018-07-17T13:19:38.702Z,2.67
2018-07-17T13:24:42.500Z,3.00
2018-07-17T13:29:46.296Z,2.90
2018-07-17T13:34:50.109Z,3.00
2018-07-17T13:39:53.922Z,2.70
2018-07-17T13:44:57.965Z,2.92
2018-07-17T13:50:02.125Z,3.00
2018-07-17T13:55:05.905Z,2.92
2018-07-17T14:00:09.707Z,3.00
2018-07-17T14:05:13.500Z,3.20
2018-07-17T14:10:17.300Z,3.08
2018-07-17T14:15:21.138Z,2.90
2018-07-17T14:20:24.940Z,3.17
2018-07-17T14:25:28.976Z,3.00
2018-07-17T14:30:33.085Z,3.00
2018-07-17T14:35:36.909Z,3.13
2018-07-17T14:40:40.724Z,3.17
2018-07-17T14:45:51.199Z,3.10
2018-07-17T14:50:54.990Z,3.13
2018-07-17T14:55:58.792Z,3.00
2018-07-17T15:01:03.020Z,3.40
2018-07-17T15:06:06.820Z,3.12
2018-07-17T15:11:10.752Z,3.37
2018-07-17T15:16:14.570Z,3.02
2018-07-17T15:21:18.436Z,2.70
2018-07-17T15:26:22.203Z,2.70
2018-07-17T15:31:26.005Z,2.85
2018-07-17T15:36:29.997Z,2.65
2018-07-17T15:41:33.806Z,3.08
2018-07-17T15:46:37.969Z,2.65
2018-07-17T15:51:41.807Z,2.90
2018-07-17T15:56:45.850Z,3.17
2018-07-17T16:01:49.759Z,2.85
2018-07-17T16:06:53.578Z,3.00
2018-07-17T16:11:57.377Z,2.83
2018-07-17T16:17:01.186Z,3.30
2018-07-17T16:22:05.002Z,2.90
2018-07-17T16:27:09.029Z,3.00
2018-07-17T16:32:12.879Z,3.08
2018-07-17T16:37:16.964Z,2.95
2018-07-17T16:42:20.757Z,2.72
2018-07-17T16:47:24.557Z,3.53
2018-07-17T16:52:28.693Z,3.52
2018-07-17T16:57:32.841Z,3.00
2018-07-17T17:02:36.873Z,3.30
2018-07-17T17:07:40.909Z,3.90
2018-07-17T17:12:44.700Z,5.00
2018-07-17T17:17:48.763Z,5.70
2018-07-17T17:22:52.830Z,5.15
2018-07-17T17:27:56.878Z,4.90
2018-07-17T17:33:00.690Z,5.07
2018-07-17T17:38:05.195Z,5.23
2018-07-17T17:43:09.002Z,5.57
2018-07-17T17:48:12.856Z,5.00
2018-07-17T17:53:16.926Z,4.90
2018-07-17T17:58:21.597Z,5.50
2018-07-17T18:03:25.397Z,5.03
2018-07-17T18:08:29.452Z,5.33
2018-07-17T18:13:33.288Z,5.57
2018-07-17T18:18:37.336Z,5.10
2018-07-17T18:23:41.141Z,5.43
2018-07-17T18:28:45.021Z,5.73
2018-07-17T18:33:49.492Z,5.50
2018-07-17T18:38:53.287Z,5.83
2018-07-17T18:43:57.102Z,5.92
2018-07-17T18:49:00.982Z,6.30
2018-07-17T18:54:05.067Z,6.13
2018-07-17T18:59:09.125Z,6.90
2018-07-17T19:04:12.937Z,5.63
2018-07-17T19:09:16.977Z,5.87
2018-07-17T19:14:20.887Z,5.97
2018-07-17T19:19:24.981Z,5.93
2018-07-17T19:24:28.848Z,6.57
2018-07-17T19:29:32.902Z,5.30
2018-07-17T19:34:36.708Z,5.80
2018-07-17T19:39:40.557Z,6.00
2018-07-17T19:44:44.376Z,5.80
2018-07-17T19:49:48.186Z,5.60
2018-07-17T19:54:51.984Z,5.27
2018-07-17T19:59:56.033Z,5.80
2018-07-17T20:04:59.849Z,5.47
2018-07-17T20:10:03.679Z,6.10
2018-07-17T20:15:07.485Z,6.07
2018-07-17T20:20:11.299Z,6.10
2018-07-17T20:25:15.362Z,5.87
2018-07-17T20:30:19.161Z,6.40
2018-07-17T20:35:22.964Z,6.77
2018-07-17T20:40:27.016Z,7.30
2018-07-17T20:45:31.593Z,7.37
2018-07-17T20:50:35.420Z,6.97
2018-07-17T20:55:39.310Z,7.70
2018-07-17T21:00:43.390Z,7.90
2018-07-17T21:05:48.515Z,7.43
2018-07-17T21:10:52.598Z,8.37
2018-07-17T21:15:56.416Z,8.30
2018-07-17T21:21:00.226Z,8.37
2018-07-17T21:26:04.094Z,7.80
2018-07-17T21:31:07.906Z,7.87
2018-07-17T21:36:11.734Z,7.80
2018-07-17T21:41:15.539Z,8.73
2018-07-17T21:46:19.602Z,8.53
2018-07-17T21:51:23.480Z,7.80
2018-07-17T21:56:27.311Z,8.80
2018-07-17T22:01:31.394Z,8.73
2018-07-17T22:06:35.229Z,9.13
2018-07-17T22:11:39.284Z,7.90
2018-07-17T22:16:43.089Z,8.50
2018-07-17T22:21:46.898Z,8.73
2018-07-17T22:26:50.952Z,8.00
2018-07-17T22:31:54.751Z,8.77
2018-07-17T22:36:58.554Z,8.63
2018-07-17T22:42:02.605Z,9.23
2018-07-17T22:47:06.408Z,9.40
2018-07-17T22:52:10.212Z,8.80
2018-07-17T22:57:14.078Z,8.80
2018-07-17T23:02:17.847Z,8.87
2018-07-17T23:07:21.630Z,9.07
2018-07-17T23:12:25.446Z,9.60
2018-07-17T23:17:29.276Z,9.80
2018-07-17T23:22:44.408Z,9.50
2018-07-17T23:27:48.766Z,9.23
2018-07-17T23:32:53.037Z,9.37
2018-07-17T23:37:56.851Z,8.57
2018-07-17T23:43:00.900Z,8.57
2018-07-17T23:48:04.714Z,8.77
2018-07-17T23:53:08.524Z,8.75
2018-07-17T23:58:12.418Z,9.70
